Аэропорт: Актау. Актау

ICAO: UATE

METAR:
2019/03/26 13:00
UATE 261300Z 11006MPS 090V150 CAVOK 09/M03 Q1019 R12/0///70 NOSIG RMK QFE762/1016
METAR:
2019/03/26 12:18
TAF UATE 261102Z 2612/2712 09008MPS 9999 SCT033 TX10/2710Z TN02/2702Z